• Join FlightAware (Why Join?)
  • Login
  • US Flag 
07:33PM EDT


 

Airport Tracker/Info


-or-


 

Live Flight TrackerFlight Track Log ✈ N779NC ✈ 09-Jul-2013 ✈ KATL - KAVL

Flight Track Log - Related Links

Times and Time Zones

All times are in EDT time to prevent confusion due to time zone crossing. See the N779NC flight status page for this flight to view local times or setup timezone preferences in your user account.

Time Position Orientation Groundspeed Altitude Reporting Facility
EDT Latitude Longitude Course Direction KTS MPH feet Rate Location/Type
09:07PM 33.6500 -84.4667 284° West 175 201 2,500  Level Atlanta TRACON
09:08PM 33.6667 -84.5500 284° West 265 305 4,200 2,400 Climbing Atlanta TRACON
09:09PM 33.7333 -84.6000 328° Northwest 282 325 7,400 2,640 Climbing Atlanta TRACON
09:10PM 33.8000 -84.6167 348° North 293 337 9,800 1,740 Climbing Atlanta TRACON
09:12PM 33.9244 -84.6272 356° North 337 388 11,500 1,560 Climbing Atlanta Center
09:13PM 34.0142 -84.6353 356° North 360 414 13,500 1,920 Climbing Atlanta Center
09:14PM 34.1267 -84.6461 355° North 366 421 15,400 1,800 Climbing Atlanta Center
09:15PM 34.2247 -84.6467 360° North 379 436 17,200 1,800 Climbing Atlanta Center
09:16PM 34.3294 -84.6097 16° North 379 436 19,100 1,680 Climbing Atlanta Center
09:17PM 34.4319 -84.5575 23° Northeast 393 452 20,600 1,440 Climbing Atlanta Center
09:18PM 34.5428 -84.4953 25° Northeast 393 452 22,000 1,200 Climbing Atlanta Center
09:19PM 34.6533 -84.4478 19° North 405 466 23,100 480 Climbing Atlanta Center
09:20PM 34.7433 -84.3547 40° Northeast 405 466 23,000 -60 Descending Atlanta Center
09:21PM 34.8147 -84.2436 52° Northeast 411 473 23,000 -300 Level Atlanta Center
09:22PM 34.8650 -84.1197 64° Northeast 412 474 22,400 -900 Descending Atlanta Center
09:23PM 34.9169 -83.9906 64° Northeast 412 474 21,200 -840 Descending Atlanta Center
09:24PM 34.9650 -83.8564 66° East 417 480 20,800 -900 Descending Atlanta Center
09:25PM 35.0022 -83.7244 71° East 417 480 19,500 -1,260 Descending Atlanta Center
09:26PM 35.0414 -83.5947 70° East 407 468 18,300 -1,200 Descending Atlanta Center
09:27PM 35.0661 -83.4753 76° East 407 468 17,200 -1,200 Descending Atlanta Center
09:28PM 35.0778 -83.3383 84° East 398 458 15,900 -1,320 Descending Atlanta Center
09:29PM 35.0917 -83.2139 82° East 387 445 14,600 -1,440 Descending Atlanta Center
09:30PM 35.1075 -83.0817 82° East 387 445 13,100 -1,680 Descending Atlanta Center
09:31PM 35.1231 -82.9697 80° East 368 423 11,300 -1,560 Descending Atlanta Center
09:32PM 35.1389 -82.8578 80° East 344 396 10,000 -720 Descending Atlanta Center
09:33PM 35.1964 -82.7833 47° Northeast 303 349 9,900 -60 Descending Atlanta Center
09:34PM 35.2817 -82.7439 21° North 286 329 9,900  Level Atlanta Center
09:35PM 35.3644 -82.6942 26° Northeast 310 357 10,000  Climbing Atlanta Center
09:36PM 35.4500 -82.6850 North 310 357 10,000 -180 Level Atlanta Center
09:37PM 35.5400 -82.6989 353° North 323 372 9,700 -1,500 Descending Atlanta Center
09:38PM 35.6169 -82.6900 North 291 335 7,100 -2,640 Descending Atlanta Center
09:39PM 35.5354 -82.6231 146° Southeast  Level Estimated
09:46PM 35.4362 -82.5418 146° Southeast  Level Estimated
09:47PM 35.4362 -82.5418 39° Northeast  Level Estimated
09:48PM 35.4362 -82.5418 39° Northeast  Level Estimated
09:49PM 35.4362 -82.5418 39° Northeast  Level Estimated
09:50PM 35.4362 -82.5418 39° Northeast  Level Estimated
09:51PM 35.4362 -82.5418 39° Northeast  Level Estimated
09:52PM 35.4362 -82.5418 39° Northeast  Level Estimated
09:53PM 35.4362 -82.5418 39° Northeast  Level Estimated